Terminal Aerodrome Forecast
Issued by NWS

Home | Current Version | Previous Version | Text Only | Print | Product List | Glossary On
Versions: 1 2 3 4 5 6 7 8 9 10 11 12 13 14 15 16 17 18 19 20 21 22 23 24 25
891
FTUS42 KGSP 191955 AAB
TAFGMU
TAF AMD
KGMU 191955Z 1920/2018 06005KT 6SM BR OVC005
     FM200000 VRB03KT 3/4SM BR OVC003
     FM200800 08003KT 1/4SM FG OVC002
     FM201300 18003KT 1SM BR OVC003
     FM201500 19004KT P6SM OVC003
     FM201700 19005KT P6SM BKN008=

USA.gov is the U.S. government's official web portal to all federal, state and local government web resources and services.